createdAt,value
2019-05-14T00:02:06.500Z,22.45
2019-05-14T00:04:36.761Z,20.45
2019-05-14T00:07:07.053Z,24.18
2019-05-14T00:09:37.248Z,21.73
2019-05-14T00:12:07.555Z,22.00
2019-05-14T00:14:40.358Z,26.17
2019-05-14T00:17:11.257Z,22.45
2019-05-14T00:19:41.962Z,23.22
2019-05-14T00:22:12.376Z,27.10
2019-05-14T00:24:42.632Z,22.67
2019-05-14T00:27:12.922Z,21.73
2019-05-14T00:29:43.568Z,22.17
2019-05-14T00:32:13.784Z,21.80
2019-05-14T00:34:43.990Z,22.42
2019-05-14T00:37:14.288Z,22.10
2019-05-14T00:39:44.543Z,21.00
2019-05-14T00:42:14.844Z,28.45
2019-05-14T00:44:54.390Z,22.67
2019-05-14T00:47:16.974Z,24.05
2019-05-14T00:49:47.216Z,20.25
2019-05-14T00:52:17.503Z,24.50
2019-05-14T00:54:47.775Z,19.20
2019-05-14T00:57:18.089Z,21.37
2019-05-14T00:59:48.356Z,20.92
2019-05-14T01:02:18.668Z,21.48
2019-05-14T01:04:48.925Z,21.57
2019-05-14T01:07:21.140Z,20.37
2019-05-14T01:09:52.382Z,20.82
2019-05-14T01:12:22.842Z,23.57
2019-05-14T01:15:06.702Z,22.55
2019-05-14T01:17:24.963Z,24.00
2019-05-14T01:19:55.206Z,24.02
2019-05-14T01:22:25.499Z,23.85
2019-05-14T01:24:55.703Z,19.27
2019-05-14T01:27:26.013Z,22.87
2019-05-14T01:29:56.207Z,22.45
2019-05-14T01:32:26.491Z,21.90
2019-05-14T01:34:56.753Z,23.65
2019-05-14T01:37:27.094Z,17.98
2019-05-14T01:39:57.353Z,23.22
2019-05-14T01:42:27.870Z,19.85
2019-05-14T01:44:58.130Z,22.05
2019-05-14T01:47:28.399Z,19.20
2019-05-14T01:49:58.618Z,18.48
2019-05-14T01:52:28.880Z,20.20
2019-05-14T01:54:59.175Z,22.67
2019-05-14T01:57:31.183Z,17.35
2019-05-14T02:00:02.282Z,19.65
2019-05-14T02:02:33.829Z,22.48
2019-05-14T02:05:05.463Z,17.20
2019-05-14T02:07:35.648Z,23.77
2019-05-14T02:10:11.591Z,20.85
2019-05-14T02:12:42.497Z,21.57
2019-05-14T02:15:14.175Z,19.37
2019-05-14T02:17:44.420Z,19.15
2019-05-14T02:20:14.998Z,20.30
2019-05-14T02:22:45.272Z,21.90
2019-05-14T02:25:15.759Z,18.77
2019-05-14T02:27:46.026Z,23.18
2019-05-14T02:30:19.368Z,24.95
2019-05-14T02:32:49.794Z,18.17
2019-05-14T02:35:20.413Z,18.87
2019-05-14T02:37:50.755Z,19.95
2019-05-14T02:40:21.190Z,21.07
2019-05-14T02:42:51.370Z,19.45
2019-05-14T02:45:21.815Z,20.72
2019-05-14T02:47:52.082Z,26.30
2019-05-14T02:50:22.343Z,29.63
2019-05-14T02:52:52.647Z,23.32
2019-05-14T02:55:22.893Z,19.25
2019-05-14T02:57:53.083Z,25.17
2019-05-14T03:00:23.410Z,24.65
2019-05-14T03:02:53.678Z,24.55
2019-05-14T03:05:24.007Z,27.22
2019-05-14T03:07:54.273Z,19.95
2019-05-14T03:10:24.537Z,21.82
2019-05-14T03:12:54.784Z,26.07
2019-05-14T03:15:28.891Z,28.35
2019-05-14T03:18:00.036Z,25.50
2019-05-14T03:20:29.828Z,20.60
2019-05-14T03:23:08.018Z,20.52
2019-05-14T03:25:31.982Z,21.60
2019-05-14T03:28:02.227Z,17.67
2019-05-14T03:30:33.323Z,26.75
2019-05-14T03:33:03.778Z,22.15
2019-05-14T03:35:42.031Z,24.23
2019-05-14T03:38:09.199Z,18.98
2019-05-14T03:40:40.010Z,26.77
2019-05-14T03:43:09.695Z,19.82
2019-05-14T03:45:40.032Z,20.12
2019-05-14T03:48:10.690Z,24.05
2019-05-14T03:50:41.157Z,21.75
2019-05-14T03:53:11.631Z,24.43
2019-05-14T03:55:41.971Z,19.77
2019-05-14T03:58:12.247Z,34.60
2019-05-14T04:00:51.403Z,27.98
2019-05-14T04:03:21.798Z,18.00
2019-05-14T04:05:52.569Z,23.40
2019-05-14T04:08:24.200Z,23.25
2019-05-14T04:10:58.838Z,24.12
2019-05-14T04:13:30.369Z,21.55
2019-05-14T04:16:02.875Z,21.60
2019-05-14T04:18:39.096Z,23.77
2019-05-14T04:21:09.972Z,17.73
2019-05-14T04:23:42.907Z,22.05
2019-05-14T04:26:13.651Z,20.00
2019-05-14T04:28:49.380Z,19.25
2019-05-14T04:31:20.654Z,18.05
2019-05-14T04:33:51.821Z,19.07
2019-05-14T04:36:22.071Z,20.97
2019-05-14T04:38:55.236Z,19.55
2019-05-14T04:41:24.255Z,22.32
2019-05-14T04:43:54.512Z,22.73
2019-05-14T04:46:24.765Z,18.27
2019-05-14T04:48:55.302Z,21.35
2019-05-14T04:51:25.491Z,25.32
2019-05-14T04:53:55.737Z,23.70
2019-05-14T04:56:25.993Z,25.60
2019-05-14T04:58:58.991Z,24.87
2019-05-14T05:01:29.546Z,41.37
2019-05-14T05:04:00.178Z,31.85
2019-05-14T05:06:30.469Z,23.92
2019-05-14T05:09:00.767Z,23.52
2019-05-14T05:11:32.469Z,25.48
2019-05-14T05:14:02.771Z,20.85
2019-05-14T05:16:34.695Z,25.10
2019-05-14T05:19:05.004Z,19.57
2019-05-14T05:21:35.266Z,23.85
2019-05-14T05:24:05.590Z,21.62
2019-05-14T05:26:35.771Z,31.55
2019-05-14T05:29:09.634Z,25.50
2019-05-14T05:31:38.942Z,19.23
2019-05-14T05:34:09.228Z,20.82
2019-05-14T05:36:39.432Z,27.15
2019-05-14T05:39:09.743Z,22.17
2019-05-14T05:41:41.081Z,25.37
2019-05-14T05:44:11.392Z,26.07
2019-05-14T05:46:43.327Z,17.12
2019-05-14T05:49:13.778Z,18.55
2019-05-14T05:51:43.960Z,15.03
2019-05-14T05:54:14.267Z,20.35
2019-05-14T05:56:44.450Z,20.25
2019-05-14T05:59:14.739Z,21.20
2019-05-14T06:01:46.662Z,27.17
2019-05-14T06:04:18.252Z,21.27
2019-05-14T06:06:48.646Z,15.03
2019-05-14T06:09:18.947Z,18.87
2019-05-14T06:11:49.190Z,16.48
2019-05-14T06:14:19.483Z,14.45
2019-05-14T06:16:49.670Z,16.60
2019-05-14T06:19:19.894Z,21.93
2019-05-14T06:21:50.169Z,21.25
2019-05-14T06:24:20.443Z,17.05
2019-05-14T06:26:50.734Z,19.77
2019-05-14T06:29:20.939Z,14.58
2019-05-14T06:31:51.263Z,18.15
2019-05-14T06:34:21.541Z,16.67
2019-05-14T06:36:51.882Z,16.73
2019-05-14T06:39:22.060Z,25.70
2019-05-14T06:41:52.407Z,23.98
2019-05-14T06:44:22.604Z,19.75
2019-05-14T06:46:53.044Z,24.60
2019-05-14T06:49:23.519Z,16.15
2019-05-14T06:51:53.791Z,15.55
2019-05-14T06:54:24.088Z,18.87
2019-05-14T06:56:54.275Z,16.57
2019-05-14T06:59:24.564Z,17.45
2019-05-14T07:01:54.759Z,27.30
2019-05-14T07:04:25.080Z,20.57
2019-05-14T07:06:58.844Z,30.15
2019-05-14T07:09:28.903Z,19.82
2019-05-14T07:11:59.420Z,23.70
2019-05-14T07:14:29.702Z,24.10
2019-05-14T07:17:00.856Z,22.27
2019-05-14T07:19:32.181Z,24.80
2019-05-14T07:22:02.534Z,18.70
2019-05-14T07:24:32.797Z,22.05
2019-05-14T07:27:03.104Z,15.08
2019-05-14T07:29:33.368Z,16.25
2019-05-14T07:32:03.665Z,20.77
2019-05-14T07:34:34.656Z,18.32
2019-05-14T07:37:04.968Z,16.82
2019-05-14T07:39:35.242Z,25.20
2019-05-14T07:42:06.102Z,15.83
2019-05-14T07:44:38.865Z,15.90
2019-05-14T07:47:08.487Z,17.87
2019-05-14T07:49:39.400Z,15.05
2019-05-14T07:52:09.648Z,15.13
2019-05-14T07:54:39.930Z,17.12
2019-05-14T07:57:12.151Z,20.82
2019-05-14T07:59:42.607Z,12.35
2019-05-14T08:02:13.034Z,10.75
2019-05-14T08:04:44.359Z,10.88
2019-05-14T08:07:14.650Z,22.32
2019-05-14T08:09:44.877Z,10.15
2019-05-14T08:12:17.102Z,14.05
2019-05-14T08:15:08.929Z,13.28
2019-05-14T08:17:19.166Z,9.75
2019-05-14T08:19:49.409Z,10.18
2019-05-14T08:22:19.692Z,16.90
2019-05-14T08:24:50.232Z,10.60
2019-05-14T08:27:20.728Z,12.15
2019-05-14T08:29:50.997Z,14.23
2019-05-14T08:32:21.290Z,14.78
2019-05-14T08:34:51.556Z,15.50
2019-05-14T08:37:21.845Z,12.10
2019-05-14T08:39:52.107Z,20.12
2019-05-14T08:42:22.344Z,14.87
2019-05-14T08:44:52.590Z,15.20
2019-05-14T08:47:22.844Z,15.53
2019-05-14T08:49:53.100Z,13.53
2019-05-14T08:52:23.320Z,12.63
2019-05-14T08:55:05.631Z,12.68
2019-05-14T08:57:25.458Z,20.17
2019-05-14T08:59:55.873Z,20.50
2019-05-14T09:02:28.495Z,19.95
2019-05-14T09:05:03.848Z,16.55
2019-05-14T09:07:29.984Z,13.03
2019-05-14T09:10:00.297Z,12.75
2019-05-14T09:12:30.587Z,13.75
2019-05-14T09:15:00.844Z,14.53
2019-05-14T09:17:31.150Z,12.33
2019-05-14T09:20:06.774Z,21.12
2019-05-14T09:22:33.323Z,14.43
2019-05-14T09:25:04.589Z,22.20
2019-05-14T09:27:34.886Z,16.52
2019-05-14T09:30:09.965Z,17.10
2019-05-14T09:32:40.273Z,23.42
2019-05-14T09:35:10.651Z,8.28
2019-05-14T09:37:40.917Z,8.10
2019-05-14T09:40:11.177Z,10.90
2019-05-14T09:42:41.455Z,10.10
2019-05-14T09:45:12.119Z,16.60
2019-05-14T09:47:42.407Z,10.65
2019-05-14T09:50:20.168Z,9.33
2019-05-14T09:52:44.810Z,7.90
2019-05-14T09:55:15.305Z,7.75
2019-05-14T09:57:45.577Z,8.63
2019-05-14T10:00:18.162Z,9.98
2019-05-14T10:02:49.095Z,11.15
2019-05-14T10:05:19.864Z,7.22
2019-05-14T10:07:50.163Z,11.30
2019-05-14T10:10:20.372Z,7.00
2019-05-14T10:12:56.425Z,6.60
2019-05-14T10:15:23.465Z,6.35
2019-05-14T10:17:53.748Z,7.95
2019-05-14T10:20:36.404Z,7.40
2019-05-14T10:22:55.878Z,7.50
2019-05-14T10:25:26.040Z,5.60
2019-05-14T10:27:58.942Z,11.83
2019-05-14T10:30:28.667Z,10.88
2019-05-14T10:33:09.575Z,9.08
2019-05-14T10:35:31.006Z,8.20
2019-05-14T10:38:01.230Z,6.45
2019-05-14T10:40:31.477Z,8.18
2019-05-14T10:43:01.774Z,5.35
2019-05-14T10:45:32.134Z,12.88
2019-05-14T10:48:02.420Z,15.60
2019-05-14T10:50:32.675Z,10.20
2019-05-14T10:53:03.001Z,24.90
2019-05-14T10:55:33.259Z,8.90
2019-05-14T10:58:03.551Z,7.58
2019-05-14T11:00:33.860Z,7.08
2019-05-14T11:03:04.045Z,13.58
2019-05-14T11:05:34.317Z,10.63
2019-05-14T11:08:04.599Z,8.60
2019-05-14T11:10:34.880Z,10.32
2019-05-14T11:13:05.079Z,7.85
2019-05-14T11:15:35.351Z,10.90
2019-05-14T11:18:05.636Z,9.35
2019-05-14T11:20:41.718Z,10.80
2019-05-14T11:23:09.505Z,8.78
2019-05-14T11:25:39.824Z,18.70
2019-05-14T11:28:10.093Z,11.85
2019-05-14T11:30:40.319Z,9.23
2019-05-14T11:33:10.542Z,9.03
2019-05-14T11:35:40.806Z,11.45
2019-05-14T11:38:27.905Z,12.00
2019-05-14T11:40:42.972Z,11.03
2019-05-14T11:43:13.192Z,8.43
2019-05-14T11:45:44.372Z,8.10
2019-05-14T11:48:14.734Z,10.60
2019-05-14T11:50:44.992Z,10.23
2019-05-14T11:53:15.308Z,6.78
2019-05-14T11:55:45.574Z,5.75
2019-05-14T11:58:19.862Z,5.12
2019-05-14T12:00:48.534Z,5.33
2019-05-14T12:03:19.784Z,7.25
2019-05-14T12:05:50.309Z,6.42
2019-05-14T12:08:20.594Z,11.48
2019-05-14T12:10:50.773Z,7.37
2019-05-14T12:13:20.993Z,10.68
2019-05-14T12:15:52.195Z,12.65
2019-05-14T12:18:22.608Z,15.15
2019-05-14T12:20:52.913Z,9.75
2019-05-14T12:23:23.163Z,11.50
2019-05-14T12:25:53.456Z,11.35
2019-05-14T12:28:23.717Z,13.05
2019-05-14T12:30:54.025Z,11.97
2019-05-14T12:33:24.309Z,13.95
2019-05-14T12:35:54.609Z,10.38
2019-05-14T12:38:24.879Z,8.78
2019-05-14T12:40:55.203Z,7.60
2019-05-14T12:43:27.982Z,7.62
2019-05-14T12:45:59.300Z,8.28
2019-05-14T12:48:29.947Z,8.23
2019-05-14T12:51:00.290Z,11.63
2019-05-14T12:53:30.553Z,9.35
2019-05-14T12:56:00.763Z,7.83
2019-05-14T12:58:32.111Z,9.00
2019-05-14T13:01:02.410Z,11.00
2019-05-14T13:03:32.664Z,10.68
2019-05-14T13:06:02.962Z,12.63
2019-05-14T13:08:33.200Z,9.70
2019-05-14T13:11:03.458Z,7.92
2019-05-14T13:13:33.752Z,10.82
2019-05-14T13:16:04.928Z,10.45
2019-05-14T13:18:35.242Z,10.10
2019-05-14T13:21:05.511Z,9.15
2019-05-14T13:23:38.115Z,11.95
2019-05-14T13:26:10.506Z,7.87
2019-05-14T13:28:40.258Z,9.38
2019-05-14T13:31:10.823Z,9.95
2019-05-14T13:33:41.101Z,10.10
2019-05-14T13:36:11.419Z,9.20
2019-05-14T13:38:41.712Z,15.13
2019-05-14T13:41:11.957Z,9.38
2019-05-14T13:43:42.253Z,7.42
2019-05-14T13:46:15.050Z,13.00
2019-05-14T13:48:44.435Z,16.10
2019-05-14T13:51:14.655Z,9.75
2019-05-14T13:53:44.932Z,9.18
2019-05-14T13:56:15.203Z,9.30
2019-05-14T13:58:48.965Z,18.30
2019-05-14T14:01:19.337Z,12.80
2019-05-14T14:04:03.597Z,11.12
2019-05-14T14:06:23.080Z,13.08
2019-05-14T14:08:53.336Z,10.23
2019-05-14T14:11:23.593Z,13.45
2019-05-14T14:13:53.922Z,9.10
2019-05-14T14:16:24.265Z,12.40
2019-05-14T14:18:54.554Z,16.45
2019-05-14T14:21:24.836Z,11.55
2019-05-14T14:23:55.026Z,19.00
2019-05-14T14:26:29.039Z,11.55
2019-05-14T14:28:59.695Z,12.43
2019-05-14T14:31:30.055Z,14.25
2019-05-14T14:34:00.321Z,12.60
2019-05-14T14:36:30.565Z,10.98
2019-05-14T14:39:00.823Z,9.85
2019-05-14T14:41:32.564Z,12.10
2019-05-14T14:44:03.047Z,24.67
2019-05-14T14:46:33.379Z,11.33
2019-05-14T14:49:03.638Z,14.30
2019-05-14T14:51:40.493Z,13.38
2019-05-14T14:54:11.834Z,15.03
2019-05-14T14:56:38.352Z,15.50
2019-05-14T14:59:09.554Z,14.20
2019-05-14T15:01:40.578Z,9.68
2019-05-14T15:04:13.634Z,7.85
2019-05-14T15:06:43.286Z,15.95
2019-05-14T15:09:13.600Z,16.17
2019-05-14T15:11:43.900Z,13.15
2019-05-14T15:14:14.148Z,11.35
2019-05-14T15:16:44.385Z,14.80
2019-05-14T15:19:20.857Z,16.95
2019-05-14T15:21:52.144Z,9.53
2019-05-14T15:24:24.249Z,11.97
2019-05-14T15:26:54.631Z,14.68
2019-05-14T15:29:24.870Z,10.43
2019-05-14T15:31:55.094Z,12.37
2019-05-14T15:34:25.286Z,10.55
2019-05-14T15:36:55.589Z,14.03
2019-05-14T15:39:25.839Z,12.58
2019-05-14T15:42:04.025Z,11.90
2019-05-14T15:44:46.398Z,11.65
2019-05-14T15:47:00.563Z,11.60
2019-05-14T15:49:30.816Z,12.15
2019-05-14T15:52:01.105Z,7.22
2019-05-14T15:54:42.971Z,13.58
2019-05-14T15:57:03.268Z,11.22
2019-05-14T15:59:33.537Z,11.85
2019-05-14T16:02:03.760Z,9.93
2019-05-14T16:04:34.303Z,11.05
2019-05-14T16:07:04.594Z,9.88
2019-05-14T16:09:35.085Z,11.73
2019-05-14T16:12:06.442Z,8.88
2019-05-14T16:14:38.712Z,12.63
2019-05-14T16:17:11.543Z,9.95
2019-05-14T16:19:40.394Z,9.50
2019-05-14T16:22:10.676Z,9.08
2019-05-14T16:24:55.755Z,9.15
2019-05-14T16:27:12.789Z,12.68
2019-05-14T16:29:45.785Z,13.25
2019-05-14T16:32:14.979Z,15.98
2019-05-14T16:34:45.204Z,10.43
2019-05-14T16:37:15.492Z,12.47
2019-05-14T16:39:48.906Z,9.05
2019-05-14T16:42:20.637Z,9.33
2019-05-14T16:44:50.941Z,24.27
2019-05-14T16:47:21.193Z,11.55
2019-05-14T16:49:51.751Z,13.30
2019-05-14T16:52:21.952Z,14.07
2019-05-14T16:55:01.820Z,13.62
2019-05-14T16:57:24.346Z,16.07
2019-05-14T16:59:55.187Z,12.47
2019-05-14T17:02:25.351Z,12.50
2019-05-14T17:04:55.589Z,11.63
2019-05-14T17:07:25.948Z,13.22
2019-05-14T17:09:58.103Z,10.88
2019-05-14T17:12:34.451Z,16.17
2019-05-14T17:15:02.734Z,16.35
2019-05-14T17:17:33.026Z,12.68
2019-05-14T17:20:03.449Z,16.85
2019-05-14T17:22:34.015Z,12.03
2019-05-14T17:25:04.866Z,12.65
2019-05-14T17:27:35.174Z,13.55
2019-05-14T17:30:08.763Z,10.20
2019-05-14T17:32:40.424Z,15.40
2019-05-14T17:35:10.898Z,11.70
2019-05-14T17:37:41.201Z,12.10
2019-05-14T17:40:12.051Z,10.95
2019-05-14T17:42:42.354Z,12.70
2019-05-14T17:45:12.601Z,9.25
2019-05-14T17:47:43.541Z,10.72
2019-05-14T17:50:14.872Z,11.55
2019-05-14T17:52:45.681Z,12.43
2019-05-14T17:55:18.621Z,10.72
2019-05-14T17:57:56.699Z,11.38
2019-05-14T18:00:20.268Z,9.53
2019-05-14T18:02:50.575Z,13.30
2019-05-14T18:05:20.977Z,12.23
2019-05-14T18:07:51.296Z,10.15
2019-05-14T18:10:21.610Z,15.40
2019-05-14T18:12:51.922Z,11.85
2019-05-14T18:15:23.726Z,13.03
2019-05-14T18:17:53.998Z,10.28
2019-05-14T18:20:24.297Z,10.63
2019-05-14T18:22:54.887Z,15.80
2019-05-14T18:25:25.181Z,10.93
2019-05-14T18:27:55.717Z,12.25
2019-05-14T18:30:28.685Z,11.18
2019-05-14T18:32:58.386Z,15.35
2019-05-14T18:35:29.627Z,8.90
2019-05-14T18:38:00.137Z,12.35
2019-05-14T18:40:30.357Z,13.38
2019-05-14T18:43:01.825Z,8.88
2019-05-14T18:45:32.098Z,14.43
2019-05-14T18:48:03.910Z,8.00
2019-05-14T18:50:34.644Z,10.63
2019-05-14T18:53:09.102Z,11.20
2019-05-14T18:55:40.495Z,11.60
2019-05-14T18:58:10.874Z,11.68
2019-05-14T19:00:41.148Z,10.40
2019-05-14T19:03:11.477Z,13.10
2019-05-14T19:05:48.199Z,12.10
2019-05-14T19:08:18.010Z,12.05
2019-05-14T19:10:49.589Z,12.47
2019-05-14T19:13:20.028Z,9.83
2019-05-14T19:15:50.618Z,12.55
2019-05-14T19:18:20.888Z,11.20
2019-05-14T19:20:51.277Z,11.53
2019-05-14T19:23:21.650Z,11.33
2019-05-14T19:25:51.960Z,14.78
2019-05-14T19:28:22.643Z,10.32
2019-05-14T19:30:52.877Z,14.93
2019-05-14T19:33:23.060Z,18.07
2019-05-14T19:35:53.822Z,13.10
2019-05-14T19:38:25.209Z,18.02
2019-05-14T19:40:55.602Z,19.12
2019-05-14T19:43:25.911Z,18.20
2019-05-14T19:45:56.197Z,15.50
2019-05-14T19:48:29.849Z,16.25
2019-05-14T19:50:58.542Z,10.95
2019-05-14T19:53:28.839Z,9.03
2019-05-14T19:55:59.429Z,11.10
2019-05-14T19:58:29.843Z,11.60
2019-05-14T20:01:00.185Z,12.98
2019-05-14T20:03:30.525Z,10.93
2019-05-14T20:06:00.829Z,8.15
2019-05-14T20:08:31.168Z,12.68
2019-05-14T20:11:01.487Z,12.28
2019-05-14T20:13:31.815Z,10.50
2019-05-14T20:16:02.120Z,11.60
2019-05-14T20:18:32.504Z,10.32
2019-05-14T20:21:05.808Z,12.80
2019-05-14T20:23:35.817Z,19.37
2019-05-14T20:26:08.132Z,17.80
2019-05-14T20:28:39.297Z,16.37
2019-05-14T20:31:11.652Z,14.68
2019-05-14T20:33:41.939Z,14.28
2019-05-14T20:36:13.839Z,12.75
2019-05-14T20:38:44.118Z,17.60
2019-05-14T20:41:14.450Z,11.05
2019-05-14T20:43:44.718Z,12.35
2019-05-14T20:46:16.721Z,10.70
2019-05-14T20:48:46.972Z,11.08
2019-05-14T20:51:18.598Z,14.58
2019-05-14T20:53:49.061Z,15.10
2019-05-14T20:56:19.365Z,13.65
2019-05-14T20:58:54.996Z,20.72
2019-05-14T21:03:59.225Z,13.20
2019-05-14T21:06:35.566Z,13.40
2019-05-14T21:09:06.786Z,18.12
2019-05-14T21:11:38.515Z,15.18
2019-05-14T21:14:09.083Z,9.53
2019-05-14T21:16:59.537Z,15.35
2019-05-14T21:19:29.923Z,13.88
2019-05-14T21:22:01.146Z,10.70
2019-05-14T21:24:33.217Z,16.10
2019-05-14T21:29:41.601Z,18.10
2019-05-14T21:32:11.947Z,13.00
2019-05-14T21:35:04.727Z,17.48
2019-05-14T21:37:39.041Z,11.88
2019-05-14T21:40:09.155Z,11.55
2019-05-14T21:42:41.507Z,11.55
2019-05-14T21:45:28.586Z,14.60
2019-05-14T21:47:59.551Z,12.05
2019-05-14T21:50:31.841Z,17.67
2019-05-14T21:53:02.164Z,12.68
2019-05-14T21:55:32.468Z,15.78
2019-05-14T21:58:05.818Z,15.95
2019-05-14T22:00:43.613Z,10.98
2019-05-14T22:03:14.189Z,13.95
2019-05-14T22:05:48.248Z,12.60
2019-05-14T22:08:18.014Z,11.73
2019-05-14T22:10:54.604Z,10.10
2019-05-14T22:13:28.369Z,11.97
2019-05-14T22:16:08.868Z,14.43
2019-05-14T22:18:39.253Z,11.75
2019-05-14T22:21:09.645Z,12.37
2019-05-14T22:23:41.050Z,15.10
2019-05-14T22:26:12.565Z,13.68
2019-05-14T22:28:42.833Z,13.93
2019-05-14T22:31:16.084Z,23.42
2019-05-14T22:34:18.390Z,12.00
2019-05-14T22:38:52.982Z,12.63
2019-05-14T22:41:24.841Z,12.07
2019-05-14T22:43:59.934Z,13.78
2019-05-14T22:49:19.145Z,11.22
2019-05-14T22:51:49.809Z,10.40
2019-05-14T22:54:20.811Z,11.20
2019-05-14T22:56:51.381Z,13.65
2019-05-14T22:59:21.774Z,9.93
2019-05-14T23:01:52.060Z,11.20
2019-05-14T23:04:22.378Z,16.60
2019-05-14T23:06:53.771Z,15.80
2019-05-14T23:09:24.077Z,14.23
2019-05-14T23:11:54.340Z,11.63
2019-05-14T23:14:24.645Z,11.35
2019-05-14T23:16:54.953Z,14.95
2019-05-14T23:19:25.264Z,9.88
2019-05-14T23:21:58.089Z,13.13
2019-05-14T23:24:28.660Z,16.55
2019-05-14T23:26:59.051Z,11.93
2019-05-14T23:29:29.364Z,16.95
2019-05-14T23:31:59.735Z,19.10
2019-05-14T23:34:30.045Z,13.50
2019-05-14T23:37:00.814Z,14.13
2019-05-14T23:39:31.263Z,10.53
2019-05-14T23:42:01.540Z,14.70
2019-05-14T23:44:31.857Z,17.90
2019-05-14T23:47:02.145Z,16.20
2019-05-14T23:49:32.447Z,19.60
2019-05-14T23:52:02.726Z,16.75
2019-05-14T23:54:33.040Z,11.68
2019-05-14T23:57:03.316Z,13.00
2019-05-14T23:59:33.616Z,14.15
